Terminal Aerodrome Forecast
Issued by NWS Memphis, TN

Home | Current Version | Previous Version | Text Only | Print | Product List | Glossary On
Versions: 1 2 3 4 5 6 7 8 9 10 11 12 13 14 15 16 17 18 19 20 21 22 23 24 25 26 27 28 29 30
000
FTUS44 KMEG 022100 AAA
TAFMEM
TAF AMD
KMEM 022100Z 0221/0318 24010G20KT P6SM VCTS BKN035CB BKN150
     FM030100 25007KT P6SM VCTS BKN050CB BKN250
      TEMPO 0306/0310 3SM TSRA BKN025CB
     FM031500 24010KT P6SM VCTS BKN040CB OVC250=

USA.gov is the U.S. government's official web portal to all federal, state and local government web resources and services.